Time;durP1;ratioP1;P1;durP2;ratioP2;P2;SDS_P1;SDS_P2;PMS_P1;PMS_P2;Temp;Humidity;BMP_temperature;BMP_pressure;BME280_temperature;BME280_humidity;BME280_pressure;Samples;Min_cycle;Max_cycle;Signal;HPM_P1;HPM_P2
2021/07/05 00:00:25;;;;;;;7.37;3.70;;;;;;;23.74;66.12;99231.67;1754760;81;20947;-51
2021/07/05 00:02:52;;;;;;;7.30;4.03;;;;;;;23.72;66.16;99236.11;1747886;82;21398;-52
2021/07/05 00:05:19;;;;;;;7.58;4.25;;;;;;;23.68;66.15;99237.91;1749229;82;20999;-55
2021/07/05 00:07:49;;;;;;;12.80;4.37;;;;;;;23.67;66.18;99243.71;1749164;82;21160;-64
2021/07/05 00:10:22;;;;;;;10.23;4.62;;;;;;;23.69;66.23;99240.88;1754681;81;21564;-60
2021/07/05 00:12:51;;;;;;;6.55;4.55;;;;;;;23.72;66.15;99249.00;1745934;82;20955;-61
2021/07/05 00:15:22;;;;;;;7.92;4.17;;;;;;;23.70;66.19;99238.36;1746254;82;21040;-63
2021/07/05 00:17:52;;;;;;;13.53;4.55;;;;;;;23.69;66.24;99237.33;1748238;82;20983;-62
2021/07/05 00:20:21;;;;;;;8.18;3.95;;;;;;;23.67;66.26;99226.72;1749233;81;20928;-61
2021/07/05 00:22:49;;;;;;;8.73;4.30;;;;;;;23.66;66.30;99235.26;1749242;81;20932;-59
2021/07/05 00:25:16;;;;;;;8.13;3.92;;;;;;;23.61;66.35;99230.25;1749547;82;21026;-59
2021/07/05 00:27:43;;;;;;;7.22;4.60;;;;;;;23.58;66.51;99236.36;1749057;82;20987;-59
2021/07/05 00:30:11;;;;;;;7.45;4.25;;;;;;;23.55;66.73;99232.92;1737242;82;21532;-64
2021/07/05 00:32:39;;;;;;;7.67;3.92;;;;;;;23.52;66.80;99233.59;1783901;80;20983;-61
2021/07/05 00:35:09;;;;;;;7.70;4.30;;;;;;;23.50;66.97;99232.31;1748400;82;21107;-63
2021/07/05 00:37:36;;;;;;;6.83;3.90;;;;;;;23.47;66.97;99228.33;1749279;82;21496;-62
2021/07/05 00:40:05;;;;;;;7.25;4.10;;;;;;;23.43;67.15;99227.39;1749171;82;20911;-60
2021/07/05 00:42:31;;;;;;;5.28;3.87;;;;;;;23.38;67.26;99224.83;1752477;81;21582;-60
2021/07/05 00:44:57;;;;;;;8.60;3.85;;;;;;;23.38;67.35;99227.02;1749043;82;21194;-60
2021/07/05 00:47:24;;;;;;;8.28;4.67;;;;;;;23.39;67.31;99229.97;1641496;83;20984;-62
2021/07/05 00:49:50;;;;;;;10.88;4.67;;;;;;;23.35;67.33;99229.05;1749282;82;21493;-61
2021/07/05 00:52:17;;;;;;;7.28;4.53;;;;;;;23.32;67.50;99229.72;1715935;83;20979;-63
2021/07/05 00:54:45;;;;;;;8.18;4.10;;;;;;;23.33;67.60;99230.51;1761547;80;20979;-62
2021/07/05 00:57:21;;;;;;;5.17;4.28;;;;;;;23.30;67.57;99224.34;1717731;82;21520;-61
2021/07/05 00:59:49;;;;;;;10.63;4.65;;;;;;;23.25;67.67;99220.66;1749110;82;21552;-61
2021/07/05 01:02:20;;;;;;;7.83;4.87;;;;;;;23.23;67.75;99225.66;1749281;82;20895;-62
2021/07/05 01:04:47;;;;;;;8.10;4.62;;;;;;;23.21;67.87;99227.91;1746145;82;20940;-62
2021/07/05 01:07:13;;;;;;;11.55;4.05;;;;;;;23.17;68.10;99239.84;1749319;82;21691;-63
2021/07/05 01:09:41;;;;;;;8.83;4.35;;;;;;;23.14;68.17;99233.09;1755010;81;21142;-61
2021/07/05 01:12:09;;;;;;;10.90;4.87;;;;;;;23.18;68.21;99233.25;1749039;82;21059;-60
2021/07/05 01:14:36;;;;;;;7.70;4.90;;;;;;;23.19;68.15;99239.75;1749280;82;21015;-60
2021/07/05 01:17:10;;;;;;;6.90;4.75;;;;;;;23.18;68.17;99240.08;1754866;81;21449;-61
2021/07/05 01:19:33;;;;;;;4.90;3.87;;;;;;;23.17;68.19;99235.16;1747603;82;20987;-61
2021/07/05 01:22:00;;;;;;;7.03;4.22;;;;;;;23.18;68.27;99233.25;1753263;81;21720;-61
2021/07/05 01:24:26;;;;;;;9.63;4.17;;;;;;;23.19;68.24;99234.28;1748963;82;20991;-62
2021/07/05 01:26:53;;;;;;;11.53;5.15;;;;;;;23.19;68.28;99228.81;1717451;83;20939;-62
2021/07/05 01:29:20;;;;;;;10.60;4.72;;;;;;;23.18;68.33;99229.94;1783724;80;20920;-59
2021/07/05 01:31:47;;;;;;;5.60;4.13;;;;;;;23.18;68.37;99231.88;1784106;80;20930;-60
2021/07/05 01:34:14;;;;;;;6.58;4.80;;;;;;;23.18;68.43;99238.72;1783783;80;21106;-60
2021/07/05 01:36:44;;;;;;;;;;;;;;;23.16;68.48;99232.21;1751596;82;20978;-60
2021/07/05 01:39:10;;;;;;;6.58;4.47;;;;;;;23.14;68.59;99230.94;1747947;82;20088;-59
2021/07/05 01:41:37;;;;;;;12.58;4.67;;;;;;;23.07;68.64;99230.86;1749121;82;21894;-59
2021/07/05 01:44:04;;;;;;;9.63;4.30;;;;;;;23.05;68.69;99239.94;1749206;82;21475;-60
2021/07/05 01:46:31;;;;;;;13.83;4.97;;;;;;;23.04;68.82;99230.16;1749108;82;21188;-60
2021/07/05 01:48:57;;;;;;;8.48;4.55;;;;;;;23.05;68.81;99230.38;1748947;82;21561;-59
2021/07/05 01:51:24;;;;;;;7.45;4.70;;;;;;;23.05;68.82;99230.95;1754783;81;21464;-60
2021/07/05 01:53:51;;;;;;;8.08;4.72;;;;;;;23.05;68.84;99233.10;1749193;82;21497;-60
2021/07/05 01:56:17;;;;;;;9.28;5.45;;;;;;;23.07;68.84;99238.23;1754863;81;21618;-58
2021/07/05 01:58:44;;;;;;;11.28;4.85;;;;;;;23.09;68.85;99242.83;1748949;82;21513;-59
2021/07/05 02:01:11;;;;;;;7.97;4.85;;;;;;;23.06;68.87;99245.64;1728062;82;20980;-59
2021/07/05 02:03:37;;;;;;;6.37;4.47;;;;;;;23.05;68.92;99244.61;1727932;83;21463;-58
2021/07/05 02:06:04;;;;;;;8.73;4.40;;;;;;;23.02;69.00;99240.59;1728066;83;21537;-60
2021/07/05 02:08:30;;;;;;;9.45;4.90;;;;;;;23.01;69.10;99251.31;1728059;83;21045;-58
2021/07/05 02:10:57;;;;;;;6.53;5.15;;;;;;;22.94;69.16;99248.28;1728232;83;21145;-60
2021/07/05 02:13:29;;;;;;;5.28;4.40;;;;;;;22.90;69.50;99247.33;1727650;83;21563;-61
2021/07/05 02:15:58;;;;;;;8.60;5.22;;;;;;;22.84;69.64;99248.07;1728331;83;20931;-61
2021/07/05 02:18:25;;;;;;;;;;;;;;;22.79;69.84;99251.55;1727150;83;21004;-62
2021/07/05 02:20:52;;;;;;;11.05;4.78;;;;;;;22.77;69.97;99254.60;1728344;82;20119;-60
2021/07/05 02:23:20;;;;;;;8.13;4.50;;;;;;;22.77;70.00;99251.88;1728289;83;21168;-61
2021/07/05 02:25:48;;;;;;;6.67;4.83;;;;;;;22.78;69.98;99243.92;1728314;81;21040;-59
2021/07/05 02:28:19;;;;;;;13.28;5.17;;;;;;;22.80;69.99;99249.05;1728131;83;21027;-62
2021/07/05 02:30:49;;;;;;;7.37;4.37;;;;;;;22.82;69.83;99244.05;1726280;83;20968;-62
2021/07/05 02:33:17;;;;;;;9.35;5.35;;;;;;;22.82;69.86;99245.42;1723053;83;21008;-60
2021/07/05 02:35:44;;;;;;;;;;;;;;;22.84;69.78;99242.61;1730558;83;21149;-60
2021/07/05 02:38:11;;;;;;;8.25;4.60;;;;;;;22.84;69.81;99237.14;1728025;83;20084;-61
2021/07/05 02:40:41;;;;;;;6.97;5.00;;;;;;;22.86;69.80;99237.61;1728626;82;21024;-61
2021/07/05 02:43:07;;;;;;;12.45;5.08;;;;;;;22.89;69.72;99244.35;1726854;83;21079;-61
2021/07/05 02:45:35;;;;;;;7.03;4.70;;;;;;;22.89;69.75;99250.64;1728372;83;22021;-64
2021/07/05 02:48:07;;;;;;;7.42;4.40;;;;;;;22.87;69.83;99245.26;1728057;83;21821;-61
2021/07/05 02:50:35;;;;;;;9.40;4.90;;;;;;;22.87;70.01;99246.05;1726413;83;20980;-62
2021/07/05 02:53:02;;;;;;;10.35;5.15;;;;;;;22.86;70.23;99244.44;1724526;83;20933;-61
2021/07/05 02:55:29;;;;;;;9.08;4.72;;;;;;;22.87;70.33;99240.59;1723636;83;20949;-60
2021/07/05 02:57:56;;;;;;;11.50;4.70;;;;;;;22.91;70.35;99238.02;1728107;83;21058;-62
2021/07/05 03:00:28;;;;;;;7.15;4.60;;;;;;;22.98;70.28;99240.22;1738137;82;21832;-60
2021/07/05 03:02:55;;;;;;;10.70;5.10;;;;;;;23.04;70.21;99244.36;1746207;82;21426;-62
2021/07/05 03:05:24;;;;;;;7.42;5.00;;;;;;;23.13;70.05;99251.19;1749239;82;20939;-62
2021/07/05 03:07:51;;;;;;;7.05;4.87;;;;;;;23.15;69.83;99246.21;1749412;82;21533;-62
2021/07/05 03:10:21;;;;;;;10.30;5.53;;;;;;;23.18;69.75;99250.44;1749402;82;20971;-61
2021/07/05 03:12:48;;;;;;;9.83;5.10;;;;;;;23.26;69.39;99241.95;1749237;82;21808;-61
2021/07/05 03:15:15;;;;;;;6.10;5.05;;;;;;;23.35;68.94;99241.90;1749115;82;20991;-60
2021/07/05 03:17:42;;;;;;;9.75;5.45;;;;;;;23.40;68.57;99230.20;1719758;83;21000;-61
2021/07/05 03:20:12;;;;;;;14.63;5.67;;;;;;;23.40;68.07;99228.84;1746401;82;20943;-59
2021/07/05 03:22:38;;;;;;;7.58;5.90;;;;;;;23.39;68.13;99227.81;1783739;80;20969;-63
2021/07/05 03:25:08;;;;;;;8.60;5.67;;;;;;;23.39;68.21;99231.33;1784121;80;21163;-62
2021/07/05 03:27:34;;;;;;;10.32;5.05;;;;;;;23.39;68.01;99231.91;1783649;80;21533;-62
2021/07/05 03:30:01;;;;;;;10.48;5.10;;;;;;;23.37;68.08;99225.98;1784026;80;21885;-61
2021/07/05 03:32:28;;;;;;;8.88;5.12;;;;;;;23.37;68.20;99230.87;1749473;82;21003;-62
2021/07/05 03:34:54;;;;;;;10.30;6.42;;;;;;;23.43;68.22;99228.75;1749480;82;20896;-60
2021/07/05 03:37:21;;;;;;;8.88;5.70;;;;;;;23.50;67.89;99226.30;1716075;83;21900;-61
2021/07/05 03:39:48;;;;;;;8.65;5.20;;;;;;;23.51;67.52;99228.45;1749293;82;21021;-62
2021/07/05 03:42:14;;;;;;;10.55;6.22;;;;;;;23.44;67.78;99225.69;1746448;82;20931;-62
2021/07/05 03:44:41;;;;;;;7.92;5.60;;;;;;;23.54;67.79;99227.78;1754701;81;20995;-62
2021/07/05 03:47:08;;;;;;;12.55;6.17;;;;;;;23.67;67.40;99225.35;1749203;82;21013;-62
2021/07/05 03:49:35;;;;;;;8.33;6.30;;;;;;;23.80;66.91;99218.81;1755000;81;21054;-63
2021/07/05 03:52:02;;;;;;;7.08;5.17;;;;;;;23.93;66.52;99225.75;1746080;82;21460;-64
2021/07/05 03:54:29;;;;;;;7.60;5.55;;;;;;;24.05;66.18;99220.32;1754579;81;20970;-62
2021/07/05 03:56:56;;;;;;;9.75;5.67;;;;;;;24.18;65.47;99223.91;1749194;82;20952;-61
2021/07/05 03:59:24;;;;;;;7.25;5.95;;;;;;;24.21;65.20;99225.18;1749070;82;20979;-62
2021/07/05 04:01:51;;;;;;;9.30;6.92;;;;;;;24.21;65.30;99230.08;1738706;82;21062;-62
2021/07/05 04:04:18;;;;;;;8.73;7.00;;;;;;;24.22;65.36;99220.73;1738621;82;21539;-59
2021/07/05 04:06:47;;;;;;;12.35;6.28;;;;;;;24.26;65.38;99213.45;1738691;82;20984;-60
2021/07/05 04:09:14;;;;;;;8.90;6.72;;;;;;;24.29;65.33;99210.59;1738663;82;21491;-60
2021/07/05 04:11:40;;;;;;;8.08;6.35;;;;;;;24.35;65.15;99213.91;1738784;82;21047;-60
2021/07/05 04:14:07;;;;;;;14.33;7.62;;;;;;;24.37;65.15;99212.45;1738764;82;21147;-61
2021/07/05 04:16:34;;;;;;;12.43;7.62;;;;;;;24.45;65.02;99210.74;1738420;82;20985;-61
2021/07/05 04:19:00;;;;;;;12.53;7.55;;;;;;;24.55;64.62;99210.30;1738419;82;20916;-63
2021/07/05 04:21:27;;;;;;;15.48;7.53;;;;;;;24.63;64.62;99201.78;1738552;82;21474;-61
2021/07/05 04:23:54;;;;;;;11.15;7.10;;;;;;;24.76;63.73;99208.87;1736163;82;21007;-61
2021/07/05 04:26:21;;;;;;;8.33;6.72;;;;;;;24.80;63.46;99207.63;1738548;82;21889;-61
2021/07/05 04:28:47;;;;;;;9.05;6.45;;;;;;;24.86;63.36;99202.73;1738570;82;21020;-61
2021/07/05 04:31:14;;;;;;;6.83;5.70;;;;;;;24.95;63.11;99195.19;1738508;82;20971;-62
2021/07/05 04:33:40;;;;;;;11.33;7.00;;;;;;;25.10;63.20;99204.09;1738557;81;21498;-62
2021/07/05 04:36:07;;;;;;;10.08;7.28;;;;;;;25.32;62.59;99198.73;1738728;82;21049;-61
2021/07/05 04:38:34;;;;;;;7.80;6.85;;;;;;;25.53;62.03;99208.75;1738792;82;21137;-61
2021/07/05 04:41:02;;;;;;;8.00;6.25;;;;;;;25.73;61.38;99202.84;1738476;82;20976;-61
2021/07/05 04:43:30;;;;;;;9.55;6.83;;;;;;;25.96;60.91;99205.06;1736054;82;20976;-61
2021/07/05 04:46:02;;;;;;;9.75;7.55;;;;;;;26.19;60.06;99208.05;1738472;82;20893;-60
2021/07/05 04:48:25;;;;;;;8.18;6.70;;;;;;;26.43;59.62;99212.62;1738009;82;21159;-60
2021/07/05 04:50:52;;;;;;;10.58;7.15;;;;;;;26.69;59.32;99207.20;1738631;82;21136;-61
2021/07/05 04:53:19;;;;;;;9.25;7.40;;;;;;;26.99;58.02;99202.64;1737950;81;20932;-61
2021/07/05 04:55:45;;;;;;;8.08;6.50;;;;;;;27.07;56.88;99194.17;1738567;82;20924;-62
2021/07/05 04:58:12;;;;;;;10.78;6.65;;;;;;;27.04;57.14;99195.48;1738638;82;21018;-62
2021/07/05 05:00:38;;;;;;;11.30;6.95;;;;;;;27.12;57.35;99198.63;1741337;82;21055;-61
2021/07/05 05:03:05;;;;;;;12.05;7.65;;;;;;;27.32;56.42;99199.45;1749466;82;21153;-61
2021/07/05 05:05:33;;;;;;;13.48;8.13;;;;;;;27.37;56.35;99196.46;1750294;81;20905;-61
2021/07/05 05:08:00;;;;;;;12.28;8.23;;;;;;;27.47;56.60;99199.80;1749358;82;20912;-61
2021/07/05 05:10:28;;;;;;;9.18;7.58;;;;;;;27.70;56.38;99200.68;1753559;81;20979;-60
2021/07/05 05:12:54;;;;;;;10.20;7.80;;;;;;;27.95;55.61;99203.14;1749483;82;20880;-62
2021/07/05 05:15:21;;;;;;;9.33;7.25;;;;;;;28.08;54.67;99196.94;1754572;80;21116;-60
2021/07/05 05:17:48;;;;;;;9.80;7.22;;;;;;;28.20;54.36;99199.52;1749221;82;21528;-60
2021/07/05 05:20:17;;;;;;;10.63;6.87;;;;;;;28.35;54.27;99195.05;1746367;82;21053;-62
2021/07/05 05:22:46;;;;;;;17.42;7.33;;;;;;;28.56;53.11;99197.97;1754765;81;20934;-60
2021/07/05 05:25:13;;;;;;;11.27;7.07;;;;;;;28.79;53.24;99194.64;1749654;82;20987;-62
2021/07/05 05:27:40;;;;;;;12.95;6.78;;;;;;;29.08;52.57;99196.47;1749301;82;21057;-62
2021/07/05 05:30:09;;;;;;;13.35;7.55;;;;;;;29.30;51.58;99197.61;1754843;81;21017;-60
2021/07/05 05:32:36;;;;;;;8.88;7.28;;;;;;;29.45;51.11;99190.91;1749036;82;21520;-60
2021/07/05 05:35:05;;;;;;;11.65;6.62;;;;;;;29.67;51.17;99197.50;1751013;81;21034;-62
2021/07/05 05:37:32;;;;;;;6.47;5.87;;;;;;;29.96;50.48;99200.61;1749055;82;21601;-60
2021/07/05 05:39:58;;;;;;;7.78;5.97;;;;;;;30.18;50.08;99193.34;1754716;81;21120;-61
2021/07/05 05:42:24;;;;;;;8.05;6.53;;;;;;;30.35;49.39;99189.18;1748859;82;21407;-60
2021/07/05 05:44:51;;;;;;;8.95;6.03;;;;;;;30.58;48.58;99198.70;1749187;82;20971;-64
2021/07/05 05:47:18;;;;;;;7.80;6.17;;;;;;;30.78;48.02;99198.45;1717699;83;21082;-62
2021/07/05 05:49:45;;;;;;;9.30;6.40;;;;;;;30.94;47.49;99200.35;1784026;80;21327;-59
2021/07/05 05:52:11;;;;;;;9.05;6.10;;;;;;;31.09;47.66;99197.91;1783936;80;21132;-60
2021/07/05 05:54:38;;;;;;;10.82;6.12;;;;;;;31.24;46.59;99204.91;1749373;82;20997;-61
2021/07/05 05:57:05;;;;;;;7.72;6.05;;;;;;;31.28;45.78;99205.14;1745765;82;20912;-61
2021/07/05 05:59:34;;;;;;;7.78;5.30;;;;;;;31.18;46.69;99202.31;1748356;82;20923;-65
2021/07/05 06:02:01;;;;;;;10.08;6.22;;;;;;;31.26;47.16;99208.11;1730435;83;21541;-62
2021/07/05 06:04:27;;;;;;;7.62;6.00;;;;;;;31.27;45.94;99202.76;1730508;83;21222;-64
2021/07/05 06:06:55;;;;;;;9.88;6.20;;;;;;;31.17;46.64;99202.91;1730392;83;20941;-62
2021/07/05 06:09:22;;;;;;;7.12;5.78;;;;;;;31.31;46.92;99203.58;1727347;83;20972;-64
2021/07/05 06:11:49;;;;;;;10.45;6.80;;;;;;;31.49;46.09;99209.80;1737989;82;20983;-64
2021/07/05 06:14:16;;;;;;;10.27;6.27;;;;;;;31.48;45.92;99203.48;1738498;82;20893;-62
2021/07/05 06:16:44;;;;;;;7.90;5.83;;;;;;;31.53;46.48;99211.41;1738260;82;21023;-65
2021/07/05 06:19:11;;;;;;;8.10;6.05;;;;;;;31.71;46.47;99212.11;1738244;82;21509;-65
2021/07/05 06:21:38;;;;;;;11.12;5.70;;;;;;;31.92;45.73;99213.58;1738282;82;20945;-65
2021/07/05 06:24:06;;;;;;;8.68;6.55;;;;;;;32.04;44.30;99216.58;1738804;82;20991;-62
2021/07/05 06:26:33;;;;;;;9.23;6.12;;;;;;;31.88;44.75;99206.45;1738221;82;21601;-65
2021/07/05 06:29:00;;;;;;;17.27;8.08;;;;;;;31.79;44.81;99209.58;1738421;82;21132;-66
2021/07/05 06:31:27;;;;;;;8.13;6.00;;;;;;;31.70;45.98;99207.73;1738624;82;21435;-66
2021/07/05 06:33:54;;;;;;;9.60;6.08;;;;;;;31.79;45.75;99211.75;1735198;82;20941;-66
2021/07/05 06:36:20;;;;;;;6.95;5.35;;;;;;;31.85;44.28;99204.45;1738501;82;21533;-65
2021/07/05 06:38:47;;;;;;;13.08;6.85;;;;;;;31.69;45.26;99210.33;1738332;82;21033;-67
2021/07/05 06:41:14;;;;;;;9.43;5.83;;;;;;;31.52;45.01;99207.64;1738344;82;21147;-65
2021/07/05 06:43:40;;;;;;;10.03;6.47;;;;;;;31.14;46.28;99201.49;1738257;81;21016;-66
2021/07/05 06:46:08;;;;;;;11.28;6.55;;;;;;;31.05;46.94;99197.67;1738646;82;20929;-66
2021/07/05 06:48:35;;;;;;;10.30;6.45;;;;;;;31.07;46.95;99201.66;1738441;82;20952;-66
2021/07/05 06:51:02;;;;;;;10.75;6.60;;;;;;;31.09;47.92;99197.12;1738477;82;21076;-64
2021/07/05 06:53:29;;;;;;;9.17;6.67;;;;;;;31.06;46.68;99193.14;1738925;82;21137;-63
2021/07/05 06:55:56;;;;;;;7.80;6.33;;;;;;;30.89;47.05;99186.89;1738451;82;20992;-62
2021/07/05 06:58:22;;;;;;;11.93;6.12;;;;;;;30.73;47.07;99194.86;1732884;81;20943;-63
2021/07/05 07:00:49;;;;;;;6.60;5.72;;;;;;;30.58;48.45;99190.41;1734722;82;21411;-65
2021/07/05 07:03:17;;;;;;;8.50;6.75;;;;;;;30.70;48.17;99194.25;1728229;83;21432;-66
2021/07/05 07:05:44;;;;;;;13.13;6.55;;;;;;;30.88;48.47;99199.13;1727611;83;21527;-64
2021/07/05 07:08:12;;;;;;;10.05;5.83;;;;;;;31.09;48.15;99184.67;1727850;83;21035;-69
2021/07/05 07:10:39;;;;;;;10.35;4.90;;;;;;;31.17;46.87;99191.03;1725252;83;20956;-64
2021/07/05 07:13:07;;;;;;;7.17;5.47;;;;;;;31.08;46.04;99185.84;1723424;83;20937;-67
2021/07/05 07:15:38;;;;;;;7.42;4.80;;;;;;;30.92;46.69;99185.52;1727909;83;20957;-70
2021/07/05 07:18:07;;;;;;;10.95;6.00;;;;;;;30.95;46.64;99186.73;1726134;83;21108;-69
2021/07/05 07:20:31;;;;;;;8.90;5.37;;;;;;;31.06;47.36;99189.59;1727048;83;21019;-70
2021/07/05 07:22:57;;;;;;;6.12;5.37;;;;;;;31.19;46.13;99185.92;1727863;83;21490;-70
2021/07/05 07:25:24;;;;;;;9.08;4.80;;;;;;;31.15;45.81;99189.25;1728076;83;20905;-70
2021/07/05 07:27:50;;;;;;;6.40;5.08;;;;;;;30.98;47.06;99183.20;1727795;81;21004;-71
2021/07/05 07:30:18;;;;;;;10.65;4.95;;;;;;;31.02;46.93;99191.53;1728094;83;21888;-71
2021/07/05 07:32:45;;;;;;;11.78;5.37;;;;;;;30.98;45.47;99190.11;1728022;83;21567;-71
2021/07/05 07:35:15;;;;;;;7.60;4.60;;;;;;;30.75;45.76;99195.27;1727985;83;21058;-70
2021/07/05 07:37:45;;;;;;;12.63;4.92;;;;;;;30.67;46.57;99198.35;1727983;83;21054;-70
2021/07/05 07:40:19;;;;;;;8.25;4.40;;;;;;;30.58;46.56;99200.87;1723045;83;21004;-69
2021/07/05 07:42:44;;;;;;;7.20;4.53;;;;;;;30.45;46.54;99193.23;1727929;83;21121;-69
2021/07/05 07:45:12;;;;;;;5.87;4.28;;;;;;;30.40;47.62;99197.11;1727793;83;21495;-70
2021/07/05 07:47:39;;;;;;;6.15;4.47;;;;;;;30.53;48.05;99198.44;1728043;83;21527;-70
2021/07/05 07:50:07;;;;;;;7.92;4.65;;;;;;;30.76;47.54;99198.84;1728191;83;20940;-69
2021/07/05 07:52:34;;;;;;;6.55;3.85;;;;;;;30.93;46.77;99196.80;1727539;83;21404;-70
2021/07/05 07:55:02;;;;;;;8.43;4.92;;;;;;;31.07;45.59;99196.72;1727787;83;21530;-69
2021/07/05 07:57:29;;;;;;;6.03;4.17;;;;;;;31.09;46.02;99195.14;1727583;83;20944;-69
2021/07/05 07:59:55;;;;;;;6.15;4.30;;;;;;;31.19;46.13;99195.61;1727959;83;21555;-69
2021/07/05 08:02:22;;;;;;;5.35;4.33;;;;;;;31.32;44.86;99203.79;1735485;82;21126;-72
2021/07/05 08:04:50;;;;;;;6.83;4.28;;;;;;;31.28;45.35;99194.06;1738537;82;20984;-70
2021/07/05 08:07:17;;;;;;;7.10;4.55;;;;;;;31.31;45.46;99204.17;1737376;82;21134;-71
2021/07/05 08:09:44;;;;;;;4.93;4.33;;;;;;;31.19;45.03;99193.63;1734912;82;20937;-71
2021/07/05 08:12:11;;;;;;;6.05;4.25;;;;;;;31.19;45.03;99193.63;1738428;82;20948;-71
2021/07/05 08:14:38;;;;;;;9.90;4.12;;;;;;;31.05;45.42;99194.91;1738770;82;21006;-70
2021/07/05 08:17:06;;;;;;;8.08;3.70;;;;;;;30.90;45.90;99189.27;1738469;82;20984;-70
2021/07/05 08:19:33;;;;;;;10.63;4.08;;;;;;;30.82;46.43;99193.16;1738639;82;21245;-69
2021/07/05 08:21:59;;;;;;;39.00;12.95;;;;;;;30.75;46.81;99198.03;1738356;82;20952;-66
2021/07/05 08:24:26;;;;;;;8.53;4.30;;;;;;;30.73;46.77;99193.48;1735557;82;21494;-69
2021/07/05 08:26:53;;;;;;;6.70;4.45;;;;;;;30.81;45.67;99197.09;1738670;81;21027;-68
2021/07/05 08:29:19;;;;;;;9.60;4.47;;;;;;;30.74;46.44;99197.03;1738377;82;21613;-68
2021/07/05 08:31:48;;;;;;;7.90;4.00;;;;;;;30.75;45.78;99195.86;1738485;82;21145;-67
2021/07/05 08:34:14;;;;;;;6.80;4.35;;;;;;;30.68;45.99;99198.56;1738331;82;21486;-67
2021/07/05 08:36:43;;;;;;;6.08;4.72;;;;;;;30.50;46.36;99188.15;1738550;82;20892;-67
2021/07/05 08:39:10;;;;;;;6.78;3.65;;;;;;;30.42;46.41;99185.70;1734588;82;21098;-67
2021/07/05 08:41:37;;;;;;;10.05;4.22;;;;;;;30.33;47.23;99197.85;1735146;82;20969;-66
2021/07/05 08:44:04;;;;;;;6.87;4.22;;;;;;;30.36;46.59;99190.18;1738636;82;21930;-67
2021/07/05 08:46:32;;;;;;;5.47;3.77;;;;;;;30.42;46.17;99197.57;1738067;82;21497;-67
2021/07/05 08:48:59;;;;;;;7.40;3.72;;;;;;;30.37;46.41;99197.30;1738360;82;24773;-67
2021/07/05 08:51:26;;;;;;;5.90;3.77;;;;;;;30.37;45.67;99198.69;1734321;81;20998;-67
2021/07/05 08:53:53;;;;;;;8.58;3.77;;;;;;;30.26;45.58;99201.92;1738620;82;21530;-69
2021/07/05 09:29:41;;;;;;;6.65;4.60;;;;;;;29.75;48.49;99200.53;1796507;79;22588;-67
2021/07/05 09:32:14;;;;;;;5.80;4.65;;;;;;;29.83;48.23;99202.81;1801768;78;20974;-65
2021/07/05 09:34:44;;;;;;;9.50;4.37;;;;;;;29.93;47.85;99206.29;1772289;78;21109;-68
2021/07/05 09:37:26;;;;;;;7.28;4.35;;;;;;;29.97;46.92;99209.11;1801127;78;21049;-65
2021/07/05 09:40:07;;;;;;;8.25;4.10;;;;;;;29.99;47.19;99208.14;1803184;78;21010;-66
2021/07/05 09:42:44;;;;;;;6.10;4.05;;;;;;;30.07;47.12;99211.80;1802705;78;21029;-58
2021/07/05 09:45:15;;;;;;;4.25;3.52;;;;;;;30.03;47.16;99208.37;1801406;78;25918;-56
2021/07/05 09:47:42;;;;;;;9.93;4.25;;;;;;;30.00;46.82;99206.97;1802073;78;21790;-56
2021/07/05 09:50:14;;;;;;;5.28;3.98;;;;;;;29.93;45.94;99212.41;1802317;78;21426;-56
2021/07/05 09:52:41;;;;;;;11.05;3.87;;;;;;;29.71;46.79;99199.13;1801243;78;20919;-56
2021/07/05 09:55:11;;;;;;;5.50;3.80;;;;;;;29.66;47.05;99206.34;1802683;78;20904;-56
2021/07/05 09:57:50;;;;;;;5.50;3.95;;;;;;;29.74;47.29;99211.95;1805603;78;21551;-56
2021/07/05 10:00:25;;;;;;;8.35;4.40;;;;;;;29.88;47.35;99208.80;1802492;78;21139;-58
2021/07/05 10:03:02;;;;;;;10.00;4.28;;;;;;;30.08;47.23;99211.98;1810310;78;21196;-57
2021/07/05 10:05:35;;;;;;;5.05;3.87;;;;;;;30.08;46.77;99212.80;1802084;78;20962;-57
2021/07/05 10:08:07;;;;;;;7.50;4.22;;;;;;;29.95;47.14;99212.25;1803482;78;20892;-57
2021/07/05 10:10:37;;;;;;;6.90;4.17;;;;;;;29.99;47.16;99211.71;1803117;78;20935;-56
2021/07/05 10:13:08;;;;;;;5.83;4.17;;;;;;;30.09;46.65;99210.81;1801322;78;21100;-57
2021/07/05 10:15:35;;;;;;;11.80;4.20;;;;;;;29.99;46.80;99216.42;1800897;78;20928;-55
2021/07/05 10:18:02;;;;;;;8.55;4.00;;;;;;;29.78;47.19;99210.04;1802534;78;21006;-55
2021/07/05 10:20:34;;;;;;;8.28;4.45;;;;;;;29.64;47.44;99214.81;1800206;78;20932;-56
2021/07/05 10:23:05;;;;;;;7.50;4.30;;;;;;;29.52;48.06;99202.83;1802449;78;21006;-55
2021/07/05 10:25:33;;;;;;;7.72;4.42;;;;;;;29.49;48.73;99211.05;1800323;78;21099;-56
2021/07/05 10:28:00;;;;;;;7.03;3.98;;;;;;;29.52;48.77;99205.59;1795189;78;20845;-57
2021/07/05 10:30:27;;;;;;;7.23;4.20;;;;;;;29.48;48.20;99198.44;1785022;79;20927;-57
2021/07/05 10:32:55;;;;;;;5.90;4.40;;;;;;;29.40;48.57;99216.05;1786469;79;20924;-57
2021/07/05 10:35:37;;;;;;;5.83;4.37;;;;;;;29.33;48.55;99214.80;1785534;79;21480;-57
2021/07/05 10:38:12;;;;;;;6.45;3.87;;;;;;;29.22;48.88;99207.53;1785365;79;21095;-56
2021/07/05 10:40:47;;;;;;;10.08;4.67;;;;;;;29.13;49.00;99201.66;1782184;79;21038;-56
2021/07/05 10:43:23;;;;;;;7.92;3.85;;;;;;;29.10;49.30;99205.16;1785542;79;20931;-57
2021/07/05 10:45:53;;;;;;;8.68;4.62;;;;;;;29.10;49.35;99211.27;1783702;79;21589;-57
2021/07/05 10:48:40;;;;;;;8.13;4.15;;;;;;;29.03;49.99;99208.41;1787129;79;20955;-56
2021/07/05 10:51:10;;;;;;;11.88;4.17;;;;;;;28.90;50.03;99211.94;1782149;79;21151;-56
2021/07/05 10:53:45;;;;;;;11.43;5.00;;;;;;;28.84;50.13;99210.08;1785272;79;20987;-57
2021/07/05 10:56:37;;;;;;;4.85;4.35;;;;;;;28.87;49.42;99212.69;1785698;79;21533;-58
2021/07/05 10:59:19;;;;;;;13.45;4.67;;;;;;;28.88;49.40;99201.88;1785014;79;20963;-56
2021/07/05 11:01:48;;;;;;;9.00;4.03;;;;;;;28.82;49.81;99196.66;1783340;79;21031;-57
2021/07/05 11:04:29;;;;;;;13.83;4.30;;;;;;;28.90;49.65;99191.26;1782143;79;22002;-57
2021/07/05 11:07:12;;;;;;;9.08;3.90;;;;;;;28.96;49.23;99200.23;1785451;79;20940;-58
2021/07/05 11:09:54;;;;;;;7.72;3.72;;;;;;;28.96;49.11;99193.91;1785574;79;21411;-56
2021/07/05 11:12:33;;;;;;;4.03;3.72;;;;;;;29.02;49.63;99193.83;1787638;79;21020;-57
2021/07/05 11:15:01;;;;;;;5.58;3.50;;;;;;;29.13;49.35;99192.00;1787095;79;20940;-55
2021/07/05 11:17:29;;;;;;;12.70;4.45;;;;;;;29.15;48.87;99189.69;1785785;79;21462;-56
2021/07/05 11:19:57;;;;;;;9.60;3.85;;;;;;;29.08;49.43;99194.28;1785260;79;20998;-56
2021/07/05 11:22:36;;;;;;;8.28;3.90;;;;;;;29.07;49.23;99185.22;1782015;79;21050;-59
2021/07/05 11:25:25;;;;;;;10.10;3.92;;;;;;;29.10;48.48;99188.61;1783446;79;22002;-55
2021/07/05 11:28:05;;;;;;;8.55;3.75;;;;;;;29.14;48.12;99186.70;1785794;79;21030;-56
2021/07/05 11:30:44;;;;;;;6.65;3.42;;;;;;;29.09;48.88;99184.25;1785044;79;21874;-56
2021/07/05 11:33:16;;;;;;;6.95;3.83;;;;;;;29.03;48.74;99185.74;1784985;79;20907;-55
2021/07/05 11:35:58;;;;;;;7.45;4.12;;;;;;;28.96;48.80;99182.88;1784656;79;21045;-56
2021/07/05 11:38:38;;;;;;;6.75;3.50;;;;;;;28.87;48.29;99183.14;1787360;79;20959;-57
2021/07/05 11:41:21;;;;;;;6.10;3.35;;;;;;;28.79;49.07;99184.20;1785654;79;21842;-55
2021/07/05 11:44:04;;;;;;;7.70;3.80;;;;;;;28.80;49.21;99170.05;1788326;79;21259;-55
2021/07/05 11:46:37;;;;;;;5.42;3.50;;;;;;;28.81;48.90;99170.27;1787346;79;20916;-55
2021/07/05 11:49:08;;;;;;;4.20;3.40;;;;;;;28.77;48.96;99167.22;1785426;79;21014;-55
2021/07/05 11:51:43;;;;;;;8.48;3.55;;;;;;;28.75;49.29;99169.56;1786147;79;20975;-55
2021/07/05 11:54:20;;;;;;;6.53;3.50;;;;;;;28.78;49.02;99166.06;1783695;79;20915;-55
2021/07/05 11:56:54;;;;;;;7.15;3.35;;;;;;;28.80;49.49;99163.75;1786893;79;22177;-55
2021/07/05 11:59:24;;;;;;;8.93;3.60;;;;;;;28.81;49.68;99150.97;1789876;79;20904;-55
2021/07/05 12:02:03;;;;;;;5.00;3.42;;;;;;;28.83;49.46;99155.52;1782352;79;21525;-56
2021/07/05 12:04:34;;;;;;;5.25;3.10;;;;;;;28.85;49.32;99157.91;1785614;79;20968;-56
2021/07/05 12:07:03;;;;;;;5.78;3.72;;;;;;;28.87;48.91;99143.75;1785895;79;21043;-58
2021/07/05 12:09:32;;;;;;;4.85;3.27;;;;;;;28.83;48.90;99150.01;1787535;79;21794;-59
2021/07/05 12:12:11;;;;;;;5.00;3.30;;;;;;;28.80;49.20;99147.99;1785816;79;20941;-56